Acharn, United Kingdom
Current Conditions -  °F | °C
As of 8:50 PM on Thursday 20 Nov 2014 (Local Time) from EGPF Reporting Station
Few Clouds Few Clouds  
Wind Chill: 44°   Ceiling: Unl
Heat Index: 46°   Visibility: 4mi
Dew Point: 43°   Wind: 6mph
Humidity: 87%   Direction: 60°ENE
Pressure: 30.27"   Gusts: NA
Location:  56.47°N, 5.02°W
Report Text: EGPF 202050Z AUTO 06005KT 6000 FEW037 08/06 Q1025
Loading
Personal Weather Stations






























Interactive Weather Map New forecast layout! Learn more

10-Day Weather Forecast

Advertisements
Track Severe Weather on mobile